<?xml version="1.0" encoding="UTF-8" standalone="no" ?>
<gpx xmlns="http://www.topografix.com/GPX/1/1" xmlns:xsi="http://www.w3.org/2001/XMLSchema-instance" xsi:schemaLocation="http://www.topografix.com/GPX/1/1 http://www.topografix.com/GPX/1/1/gpx.xsd" version="1.1" creator="VisuGPX - https://www.visugpx.com">
  <metadata>
    <name>Cyclo Vieux Boucau - Cap Breton</name>
    <desc><![CDATA[Cyclo, là aussi très sympa dans les forêts landaises et en longeant quelquefois l\'Océan ;-))]]></desc>
  </metadata>
  <trk>
    <name><![CDATA[CAP BRETON]]></name>
    <trkseg>
      <trkpt lat="43.78312" lon="-1.39178">
        <ele>5.42</ele>
        <time>2012-07-30T09:02:44Z</time>
      </trkpt>
      <trkpt lat="43.78312" lon="-1.39177">
        <ele>3.98</ele>
        <time>2012-07-30T09:02:54Z</time>
      </trkpt>
      <trkpt lat="43.78313" lon="-1.39164">
        <ele>-24.38</ele>
        <time>2012-07-31T06:30:06Z</time>
      </trkpt>
      <trkpt lat="43.78309" lon="-1.39157">
        <ele>-24.38</ele>
        <time>2012-07-31T06:30:22Z</time>
      </trkpt>
      <trkpt lat="43.78316" lon="-1.39176">
        <ele>0.14</ele>
        <time>2012-07-31T06:36:09Z</time>
      </trkpt>
      <trkpt lat="43.78316" lon="-1.39176">
        <ele>-0.82</ele>
        <time>2012-07-31T06:36:17Z</time>
      </trkpt>
      <trkpt lat="43.78307" lon="-1.39175">
        <ele>0.62</ele>
        <time>2012-07-31T06:43:31Z</time>
      </trkpt>
      <trkpt lat="43.7831" lon="-1.39177">
        <ele>1.1</ele>
        <time>2012-07-31T06:45:35Z</time>
      </trkpt>
      <trkpt lat="43.78286" lon="-1.39303">
        <ele>0.62</ele>
        <time>2012-07-31T06:46:22Z</time>
      </trkpt>
      <trkpt lat="43.78287" lon="-1.39425">
        <ele>0.62</ele>
        <time>2012-07-31T06:47:00Z</time>
      </trkpt>
      <trkpt lat="43.78269" lon="-1.39554">
        <ele>0.14</ele>
        <time>2012-07-31T06:47:29Z</time>
      </trkpt>
      <trkpt lat="43.78231" lon="-1.39631">
        <ele>0.14</ele>
        <time>2012-07-31T06:47:59Z</time>
      </trkpt>
      <trkpt lat="43.78136" lon="-1.39631">
        <ele>0.14</ele>
        <time>2012-07-31T06:48:20Z</time>
      </trkpt>
      <trkpt lat="43.78044" lon="-1.39631">
        <ele>0.62</ele>
        <time>2012-07-31T06:48:41Z</time>
      </trkpt>
      <trkpt lat="43.77954" lon="-1.39622">
        <ele>1.1</ele>
        <time>2012-07-31T06:49:00Z</time>
      </trkpt>
      <trkpt lat="43.77862" lon="-1.39583">
        <ele>1.58</ele>
        <time>2012-07-31T06:49:22Z</time>
      </trkpt>
      <trkpt lat="43.77768" lon="-1.39538">
        <ele>1.58</ele>
        <time>2012-07-31T06:49:42Z</time>
      </trkpt>
      <trkpt lat="43.77671" lon="-1.39482">
        <ele>1.1</ele>
        <time>2012-07-31T06:49:59Z</time>
      </trkpt>
      <trkpt lat="43.77581" lon="-1.39431">
        <ele>0.62</ele>
        <time>2012-07-31T06:50:15Z</time>
      </trkpt>
      <trkpt lat="43.77494" lon="-1.39385">
        <ele>1.1</ele>
        <time>2012-07-31T06:50:31Z</time>
      </trkpt>
      <trkpt lat="43.77429" lon="-1.3942">
        <ele>0.62</ele>
        <time>2012-07-31T06:50:53Z</time>
      </trkpt>
      <trkpt lat="43.77376" lon="-1.39486">
        <ele>0.62</ele>
        <time>2012-07-31T06:51:20Z</time>
      </trkpt>
      <trkpt lat="43.77297" lon="-1.39432">
        <ele>1.1</ele>
        <time>2012-07-31T06:53:22Z</time>
      </trkpt>
      <trkpt lat="43.7721" lon="-1.39387">
        <ele>1.58</ele>
        <time>2012-07-31T06:53:42Z</time>
      </trkpt>
      <trkpt lat="43.77128" lon="-1.39336">
        <ele>1.58</ele>
        <time>2012-07-31T06:53:59Z</time>
      </trkpt>
      <trkpt lat="43.77043" lon="-1.39294">
        <ele>1.58</ele>
        <time>2012-07-31T06:54:16Z</time>
      </trkpt>
      <trkpt lat="43.76958" lon="-1.39323">
        <ele>2.06</ele>
        <time>2012-07-31T06:54:33Z</time>
      </trkpt>
      <trkpt lat="43.76871" lon="-1.39359">
        <ele>2.54</ele>
        <time>2012-07-31T06:54:49Z</time>
      </trkpt>
      <trkpt lat="43.76775" lon="-1.39362">
        <ele>2.54</ele>
        <time>2012-07-31T06:55:06Z</time>
      </trkpt>
      <trkpt lat="43.76687" lon="-1.39333">
        <ele>1.58</ele>
        <time>2012-07-31T06:55:21Z</time>
      </trkpt>
      <trkpt lat="43.76598" lon="-1.39288">
        <ele>1.1</ele>
        <time>2012-07-31T06:55:36Z</time>
      </trkpt>
      <trkpt lat="43.76511" lon="-1.39245">
        <ele>1.58</ele>
        <time>2012-07-31T06:55:52Z</time>
      </trkpt>
      <trkpt lat="43.76423" lon="-1.39201">
        <ele>3.02</ele>
        <time>2012-07-31T06:56:09Z</time>
      </trkpt>
      <trkpt lat="43.76329" lon="-1.39147">
        <ele>3.02</ele>
        <time>2012-07-31T06:56:25Z</time>
      </trkpt>
      <trkpt lat="43.76248" lon="-1.39125">
        <ele>3.5</ele>
        <time>2012-07-31T06:56:51Z</time>
      </trkpt>
      <trkpt lat="43.76166" lon="-1.39203">
        <ele>2.54</ele>
        <time>2012-07-31T06:57:14Z</time>
      </trkpt>
      <trkpt lat="43.76075" lon="-1.39269">
        <ele>3.02</ele>
        <time>2012-07-31T06:57:33Z</time>
      </trkpt>
      <trkpt lat="43.75987" lon="-1.39345">
        <ele>3.02</ele>
        <time>2012-07-31T06:57:49Z</time>
      </trkpt>
      <trkpt lat="43.75905" lon="-1.39412">
        <ele>3.02</ele>
        <time>2012-07-31T06:58:05Z</time>
      </trkpt>
      <trkpt lat="43.75815" lon="-1.39481">
        <ele>2.54</ele>
        <time>2012-07-31T06:58:21Z</time>
      </trkpt>
      <trkpt lat="43.75728" lon="-1.39553">
        <ele>2.54</ele>
        <time>2012-07-31T06:58:35Z</time>
      </trkpt>
      <trkpt lat="43.75647" lon="-1.39619">
        <ele>2.06</ele>
        <time>2012-07-31T06:58:49Z</time>
      </trkpt>
      <trkpt lat="43.75563" lon="-1.39685">
        <ele>2.06</ele>
        <time>2012-07-31T06:59:04Z</time>
      </trkpt>
      <trkpt lat="43.75483" lon="-1.39749">
        <ele>2.06</ele>
        <time>2012-07-31T06:59:18Z</time>
      </trkpt>
      <trkpt lat="43.754" lon="-1.39817">
        <ele>2.06</ele>
        <time>2012-07-31T06:59:33Z</time>
      </trkpt>
      <trkpt lat="43.75322" lon="-1.39882">
        <ele>2.06</ele>
        <time>2012-07-31T06:59:48Z</time>
      </trkpt>
      <trkpt lat="43.7524" lon="-1.39949">
        <ele>2.06</ele>
        <time>2012-07-31T07:00:03Z</time>
      </trkpt>
      <trkpt lat="43.75154" lon="-1.40016">
        <ele>2.06</ele>
        <time>2012-07-31T07:00:19Z</time>
      </trkpt>
      <trkpt lat="43.75069" lon="-1.40086">
        <ele>2.54</ele>
        <time>2012-07-31T07:00:35Z</time>
      </trkpt>
      <trkpt lat="43.74986" lon="-1.40153">
        <ele>2.06</ele>
        <time>2012-07-31T07:00:49Z</time>
      </trkpt>
      <trkpt lat="43.74907" lon="-1.40216">
        <ele>2.06</ele>
        <time>2012-07-31T07:01:03Z</time>
      </trkpt>
      <trkpt lat="43.74825" lon="-1.40281">
        <ele>1.58</ele>
        <time>2012-07-31T07:01:18Z</time>
      </trkpt>
      <trkpt lat="43.74743" lon="-1.40346">
        <ele>1.58</ele>
        <time>2012-07-31T07:01:34Z</time>
      </trkpt>
      <trkpt lat="43.74661" lon="-1.40415">
        <ele>1.58</ele>
        <time>2012-07-31T07:01:50Z</time>
      </trkpt>
      <trkpt lat="43.74578" lon="-1.40483">
        <ele>1.1</ele>
        <time>2012-07-31T07:02:05Z</time>
      </trkpt>
      <trkpt lat="43.74492" lon="-1.40549">
        <ele>1.1</ele>
        <time>2012-07-31T07:02:20Z</time>
      </trkpt>
      <trkpt lat="43.74411" lon="-1.40617">
        <ele>1.1</ele>
        <time>2012-07-31T07:02:34Z</time>
      </trkpt>
      <trkpt lat="43.74329" lon="-1.40684">
        <ele>1.1</ele>
        <time>2012-07-31T07:02:48Z</time>
      </trkpt>
      <trkpt lat="43.74249" lon="-1.40747">
        <ele>1.1</ele>
        <time>2012-07-31T07:03:02Z</time>
      </trkpt>
      <trkpt lat="43.74167" lon="-1.40812">
        <ele>1.1</ele>
        <time>2012-07-31T07:03:17Z</time>
      </trkpt>
      <trkpt lat="43.74085" lon="-1.40881">
        <ele>0.62</ele>
        <time>2012-07-31T07:03:32Z</time>
      </trkpt>
      <trkpt lat="43.74001" lon="-1.40946">
        <ele>1.1</ele>
        <time>2012-07-31T07:03:47Z</time>
      </trkpt>
      <trkpt lat="43.73919" lon="-1.41015">
        <ele>0.62</ele>
        <time>2012-07-31T07:04:03Z</time>
      </trkpt>
      <trkpt lat="43.73833" lon="-1.41084">
        <ele>0.14</ele>
        <time>2012-07-31T07:04:19Z</time>
      </trkpt>
      <trkpt lat="43.73745" lon="-1.41157">
        <ele>0.62</ele>
        <time>2012-07-31T07:04:36Z</time>
      </trkpt>
      <trkpt lat="43.73655" lon="-1.41225">
        <ele>1.1</ele>
        <time>2012-07-31T07:04:52Z</time>
      </trkpt>
      <trkpt lat="43.73563" lon="-1.41194">
        <ele>0.14</ele>
        <time>2012-07-31T07:05:07Z</time>
      </trkpt>
      <trkpt lat="43.73479" lon="-1.41146">
        <ele>1.1</ele>
        <time>2012-07-31T07:05:23Z</time>
      </trkpt>
      <trkpt lat="43.7339" lon="-1.41168">
        <ele>1.58</ele>
        <time>2012-07-31T07:05:40Z</time>
      </trkpt>
      <trkpt lat="43.73302" lon="-1.4121">
        <ele>3.98</ele>
        <time>2012-07-31T07:06:01Z</time>
      </trkpt>
      <trkpt lat="43.73209" lon="-1.41258">
        <ele>3.5</ele>
        <time>2012-07-31T07:06:22Z</time>
      </trkpt>
      <trkpt lat="43.73114" lon="-1.41301">
        <ele>2.06</ele>
        <time>2012-07-31T07:06:39Z</time>
      </trkpt>
      <trkpt lat="43.73023" lon="-1.41267">
        <ele>1.58</ele>
        <time>2012-07-31T07:06:55Z</time>
      </trkpt>
      <trkpt lat="43.7294" lon="-1.41201">
        <ele>1.58</ele>
        <time>2012-07-31T07:07:11Z</time>
      </trkpt>
      <trkpt lat="43.7285" lon="-1.41161">
        <ele>2.06</ele>
        <time>2012-07-31T07:07:27Z</time>
      </trkpt>
      <trkpt lat="43.72759" lon="-1.41157">
        <ele>3.5</ele>
        <time>2012-07-31T07:07:43Z</time>
      </trkpt>
      <trkpt lat="43.72667" lon="-1.41184">
        <ele>5.42</ele>
        <time>2012-07-31T07:08:02Z</time>
      </trkpt>
      <trkpt lat="43.72584" lon="-1.41251">
        <ele>2.54</ele>
        <time>2012-07-31T07:08:17Z</time>
      </trkpt>
      <trkpt lat="43.72494" lon="-1.41308">
        <ele>3.98</ele>
        <time>2012-07-31T07:08:35Z</time>
      </trkpt>
      <trkpt lat="43.72406" lon="-1.41364">
        <ele>2.54</ele>
        <time>2012-07-31T07:08:50Z</time>
      </trkpt>
      <trkpt lat="43.72318" lon="-1.41418">
        <ele>2.54</ele>
        <time>2012-07-31T07:09:08Z</time>
      </trkpt>
      <trkpt lat="43.7223" lon="-1.41472">
        <ele>3.02</ele>
        <time>2012-07-31T07:09:25Z</time>
      </trkpt>
      <trkpt lat="43.72141" lon="-1.41529">
        <ele>4.46</ele>
        <time>2012-07-31T07:09:42Z</time>
      </trkpt>
      <trkpt lat="43.72055" lon="-1.41581">
        <ele>2.54</ele>
        <time>2012-07-31T07:09:56Z</time>
      </trkpt>
      <trkpt lat="43.71971" lon="-1.41638">
        <ele>2.54</ele>
        <time>2012-07-31T07:10:10Z</time>
      </trkpt>
      <trkpt lat="43.7189" lon="-1.41704">
        <ele>3.5</ele>
        <time>2012-07-31T07:10:25Z</time>
      </trkpt>
      <trkpt lat="43.71812" lon="-1.41786">
        <ele>7.83</ele>
        <time>2012-07-31T07:10:43Z</time>
      </trkpt>
      <trkpt lat="43.71745" lon="-1.41877">
        <ele>11.67</ele>
        <time>2012-07-31T07:10:59Z</time>
      </trkpt>
      <trkpt lat="43.7168" lon="-1.41975">
        <ele>6.87</ele>
        <time>2012-07-31T07:11:12Z</time>
      </trkpt>
      <trkpt lat="43.71618" lon="-1.42071">
        <ele>4.46</ele>
        <time>2012-07-31T07:11:23Z</time>
      </trkpt>
      <trkpt lat="43.7153" lon="-1.42112">
        <ele>3.02</ele>
        <time>2012-07-31T07:11:35Z</time>
      </trkpt>
      <trkpt lat="43.71439" lon="-1.42095">
        <ele>3.98</ele>
        <time>2012-07-31T07:11:50Z</time>
      </trkpt>
      <trkpt lat="43.71358" lon="-1.42031">
        <ele>2.54</ele>
        <time>2012-07-31T07:12:06Z</time>
      </trkpt>
      <trkpt lat="43.71288" lon="-1.41942">
        <ele>5.42</ele>
        <time>2012-07-31T07:12:22Z</time>
      </trkpt>
      <trkpt lat="43.712" lon="-1.41884">
        <ele>5.91</ele>
        <time>2012-07-31T07:12:40Z</time>
      </trkpt>
      <trkpt lat="43.71106" lon="-1.41899">
        <ele>3.98</ele>
        <time>2012-07-31T07:12:55Z</time>
      </trkpt>
      <trkpt lat="43.71011" lon="-1.41911">
        <ele>4.94</ele>
        <time>2012-07-31T07:13:13Z</time>
      </trkpt>
      <trkpt lat="43.70927" lon="-1.4186">
        <ele>8.79</ele>
        <time>2012-07-31T07:13:35Z</time>
      </trkpt>
      <trkpt lat="43.70867" lon="-1.41758">
        <ele>9.27</ele>
        <time>2012-07-31T07:13:57Z</time>
      </trkpt>
      <trkpt lat="43.70784" lon="-1.41704">
        <ele>7.83</ele>
        <time>2012-07-31T07:14:17Z</time>
      </trkpt>
      <trkpt lat="43.70701" lon="-1.41752">
        <ele>5.91</ele>
        <time>2012-07-31T07:14:32Z</time>
      </trkpt>
      <trkpt lat="43.70618" lon="-1.41786">
        <ele>5.91</ele>
        <time>2012-07-31T07:14:51Z</time>
      </trkpt>
      <trkpt lat="43.70596" lon="-1.41895">
        <ele>4.94</ele>
        <time>2012-07-31T07:15:17Z</time>
      </trkpt>
      <trkpt lat="43.70604" lon="-1.42016">
        <ele>5.91</ele>
        <time>2012-07-31T07:15:39Z</time>
      </trkpt>
      <trkpt lat="43.70678" lon="-1.4207">
        <ele>7.83</ele>
        <time>2012-07-31T07:16:00Z</time>
      </trkpt>
      <trkpt lat="43.70746" lon="-1.4217">
        <ele>8.79</ele>
        <time>2012-07-31T07:16:18Z</time>
      </trkpt>
      <trkpt lat="43.70809" lon="-1.4227">
        <ele>5.42</ele>
        <time>2012-07-31T07:16:34Z</time>
      </trkpt>
      <trkpt lat="43.70851" lon="-1.42391">
        <ele>6.39</ele>
        <time>2012-07-31T07:16:47Z</time>
      </trkpt>
      <trkpt lat="43.70841" lon="-1.42516">
        <ele>7.35</ele>
        <time>2012-07-31T07:17:01Z</time>
      </trkpt>
      <trkpt lat="43.70809" lon="-1.42638">
        <ele>7.83</ele>
        <time>2012-07-31T07:17:16Z</time>
      </trkpt>
      <trkpt lat="43.70771" lon="-1.42756">
        <ele>4.94</ele>
        <time>2012-07-31T07:17:30Z</time>
      </trkpt>
      <trkpt lat="43.70742" lon="-1.4288">
        <ele>3.02</ele>
        <time>2012-07-31T07:17:44Z</time>
      </trkpt>
      <trkpt lat="43.70717" lon="-1.43003">
        <ele>4.94</ele>
        <time>2012-07-31T07:18:03Z</time>
      </trkpt>
      <trkpt lat="43.70648" lon="-1.4308">
        <ele>2.06</ele>
        <time>2012-07-31T07:18:19Z</time>
      </trkpt>
      <trkpt lat="43.70568" lon="-1.43152">
        <ele>3.98</ele>
        <time>2012-07-31T07:18:37Z</time>
      </trkpt>
      <trkpt lat="43.70499" lon="-1.43214">
        <ele>4.46</ele>
        <time>2012-07-31T07:18:54Z</time>
      </trkpt>
      <trkpt lat="43.70417" lon="-1.43277">
        <ele>7.83</ele>
        <time>2012-07-31T07:19:13Z</time>
      </trkpt>
      <trkpt lat="43.70329" lon="-1.43325">
        <ele>6.39</ele>
        <time>2012-07-31T07:19:30Z</time>
      </trkpt>
      <trkpt lat="43.7024" lon="-1.43347">
        <ele>2.06</ele>
        <time>2012-07-31T07:19:46Z</time>
      </trkpt>
      <trkpt lat="43.7015" lon="-1.43351">
        <ele>5.91</ele>
        <time>2012-07-31T07:20:04Z</time>
      </trkpt>
      <trkpt lat="43.70057" lon="-1.43354">
        <ele>6.87</ele>
        <time>2012-07-31T07:20:22Z</time>
      </trkpt>
      <trkpt lat="43.69968" lon="-1.43338">
        <ele>7.35</ele>
        <time>2012-07-31T07:20:40Z</time>
      </trkpt>
      <trkpt lat="43.69877" lon="-1.43368">
        <ele>1.58</ele>
        <time>2012-07-31T07:20:54Z</time>
      </trkpt>
      <trkpt lat="43.69798" lon="-1.43342">
        <ele>3.5</ele>
        <time>2012-07-31T07:21:13Z</time>
      </trkpt>
      <trkpt lat="43.69723" lon="-1.4338">
        <ele>5.91</ele>
        <time>2012-07-31T07:21:42Z</time>
      </trkpt>
      <trkpt lat="43.69633" lon="-1.43399">
        <ele>6.39</ele>
        <time>2012-07-31T07:22:00Z</time>
      </trkpt>
      <trkpt lat="43.69581" lon="-1.43498">
        <ele>9.27</ele>
        <time>2012-07-31T07:22:17Z</time>
      </trkpt>
      <trkpt lat="43.6956" lon="-1.43606">
        <ele>12.15</ele>
        <time>2012-07-31T07:22:42Z</time>
      </trkpt>
      <trkpt lat="43.69472" lon="-1.43627">
        <ele>8.79</ele>
        <time>2012-07-31T07:23:05Z</time>
      </trkpt>
      <trkpt lat="43.69385" lon="-1.43588">
        <ele>2.54</ele>
        <time>2012-07-31T07:23:17Z</time>
      </trkpt>
      <trkpt lat="43.69295" lon="-1.43605">
        <ele>6.87</ele>
        <time>2012-07-31T07:23:29Z</time>
      </trkpt>
      <trkpt lat="43.69203" lon="-1.43598">
        <ele>5.42</ele>
        <time>2012-07-31T07:23:41Z</time>
      </trkpt>
      <trkpt lat="43.6912" lon="-1.4362">
        <ele>6.39</ele>
        <time>2012-07-31T07:23:55Z</time>
      </trkpt>
      <trkpt lat="43.69034" lon="-1.43631">
        <ele>6.39</ele>
        <time>2012-07-31T07:24:14Z</time>
      </trkpt>
      <trkpt lat="43.68944" lon="-1.43652">
        <ele>6.87</ele>
        <time>2012-07-31T07:24:39Z</time>
      </trkpt>
      <trkpt lat="43.6885" lon="-1.43675">
        <ele>5.42</ele>
        <time>2012-07-31T07:24:56Z</time>
      </trkpt>
      <trkpt lat="43.68756" lon="-1.4369">
        <ele>4.46</ele>
        <time>2012-07-31T07:25:13Z</time>
      </trkpt>
      <trkpt lat="43.68666" lon="-1.43673">
        <ele>3.5</ele>
        <time>2012-07-31T07:25:29Z</time>
      </trkpt>
      <trkpt lat="43.68578" lon="-1.43703">
        <ele>5.42</ele>
        <time>2012-07-31T07:25:46Z</time>
      </trkpt>
      <trkpt lat="43.68486" lon="-1.43696">
        <ele>3.98</ele>
        <time>2012-07-31T07:26:03Z</time>
      </trkpt>
      <trkpt lat="43.6839" lon="-1.43674">
        <ele>3.02</ele>
        <time>2012-07-31T07:26:20Z</time>
      </trkpt>
      <trkpt lat="43.683" lon="-1.43653">
        <ele>2.54</ele>
        <time>2012-07-31T07:26:34Z</time>
      </trkpt>
      <trkpt lat="43.68211" lon="-1.4368">
        <ele>3.5</ele>
        <time>2012-07-31T07:26:51Z</time>
      </trkpt>
      <trkpt lat="43.68142" lon="-1.43734">
        <ele>3.02</ele>
        <time>2012-07-31T07:27:10Z</time>
      </trkpt>
      <trkpt lat="43.68065" lon="-1.43803">
        <ele>3.5</ele>
        <time>2012-07-31T07:27:26Z</time>
      </trkpt>
      <trkpt lat="43.67981" lon="-1.43846">
        <ele>7.83</ele>
        <time>2012-07-31T07:27:45Z</time>
      </trkpt>
      <trkpt lat="43.67889" lon="-1.43856">
        <ele>4.46</ele>
        <time>2012-07-31T07:28:07Z</time>
      </trkpt>
      <trkpt lat="43.67797" lon="-1.43828">
        <ele>2.54</ele>
        <time>2012-07-31T07:28:21Z</time>
      </trkpt>
      <trkpt lat="43.67709" lon="-1.43797">
        <ele>3.5</ele>
        <time>2012-07-31T07:28:37Z</time>
      </trkpt>
      <trkpt lat="43.6762" lon="-1.43767">
        <ele>3.98</ele>
        <time>2012-07-31T07:28:53Z</time>
      </trkpt>
      <trkpt lat="43.6753" lon="-1.43766">
        <ele>4.94</ele>
        <time>2012-07-31T07:29:11Z</time>
      </trkpt>
      <trkpt lat="43.67457" lon="-1.43842">
        <ele>3.02</ele>
        <time>2012-07-31T07:29:27Z</time>
      </trkpt>
      <trkpt lat="43.67371" lon="-1.43899">
        <ele>2.54</ele>
        <time>2012-07-31T07:29:42Z</time>
      </trkpt>
      <trkpt lat="43.67279" lon="-1.43912">
        <ele>3.5</ele>
        <time>2012-07-31T07:29:58Z</time>
      </trkpt>
      <trkpt lat="43.67188" lon="-1.43924">
        <ele>3.02</ele>
        <time>2012-07-31T07:30:14Z</time>
      </trkpt>
      <trkpt lat="43.67096" lon="-1.43942">
        <ele>3.98</ele>
        <time>2012-07-31T07:30:33Z</time>
      </trkpt>
      <trkpt lat="43.67019" lon="-1.43933">
        <ele>4.94</ele>
        <time>2012-07-31T07:30:52Z</time>
      </trkpt>
      <trkpt lat="43.66929" lon="-1.43944">
        <ele>3.5</ele>
        <time>2012-07-31T07:32:06Z</time>
      </trkpt>
      <trkpt lat="43.66835" lon="-1.43955">
        <ele>3.5</ele>
        <time>2012-07-31T07:32:24Z</time>
      </trkpt>
      <trkpt lat="43.66743" lon="-1.43968">
        <ele>3.98</ele>
        <time>2012-07-31T07:32:39Z</time>
      </trkpt>
      <trkpt lat="43.66649" lon="-1.43983">
        <ele>3.02</ele>
        <time>2012-07-31T07:32:55Z</time>
      </trkpt>
      <trkpt lat="43.66554" lon="-1.43998">
        <ele>3.98</ele>
        <time>2012-07-31T07:33:12Z</time>
      </trkpt>
      <trkpt lat="43.66464" lon="-1.44009">
        <ele>6.39</ele>
        <time>2012-07-31T07:33:31Z</time>
      </trkpt>
      <trkpt lat="43.66437" lon="-1.43896">
        <ele>3.02</ele>
        <time>2012-07-31T07:33:52Z</time>
      </trkpt>
      <trkpt lat="43.66446" lon="-1.43775">
        <ele>3.02</ele>
        <time>2012-07-31T07:34:11Z</time>
      </trkpt>
      <trkpt lat="43.66391" lon="-1.43675">
        <ele>3.5</ele>
        <time>2012-07-31T07:34:28Z</time>
      </trkpt>
      <trkpt lat="43.66344" lon="-1.43569">
        <ele>7.35</ele>
        <time>2012-07-31T07:34:47Z</time>
      </trkpt>
      <trkpt lat="43.66333" lon="-1.43438">
        <ele>9.75</ele>
        <time>2012-07-31T07:35:11Z</time>
      </trkpt>
      <trkpt lat="43.66272" lon="-1.43342">
        <ele>4.46</ele>
        <time>2012-07-31T07:35:25Z</time>
      </trkpt>
      <trkpt lat="43.66206" lon="-1.43267">
        <ele>5.91</ele>
        <time>2012-07-31T07:35:43Z</time>
      </trkpt>
      <trkpt lat="43.66117" lon="-1.43277">
        <ele>7.35</ele>
        <time>2012-07-31T07:36:07Z</time>
      </trkpt>
      <trkpt lat="43.66057" lon="-1.43185">
        <ele>8.31</ele>
        <time>2012-07-31T07:36:34Z</time>
      </trkpt>
      <trkpt lat="43.6599" lon="-1.43113">
        <ele>4.46</ele>
        <time>2012-07-31T07:37:01Z</time>
      </trkpt>
      <trkpt lat="43.65906" lon="-1.43161">
        <ele>3.02</ele>
        <time>2012-07-31T07:37:17Z</time>
      </trkpt>
      <trkpt lat="43.65824" lon="-1.43208">
        <ele>2.54</ele>
        <time>2012-07-31T07:37:33Z</time>
      </trkpt>
      <trkpt lat="43.65753" lon="-1.43291">
        <ele>3.02</ele>
        <time>2012-07-31T07:37:50Z</time>
      </trkpt>
      <trkpt lat="43.65666" lon="-1.43328">
        <ele>2.54</ele>
        <time>2012-07-31T07:38:08Z</time>
      </trkpt>
      <trkpt lat="43.65571" lon="-1.43313">
        <ele>3.02</ele>
        <time>2012-07-31T07:38:27Z</time>
      </trkpt>
      <trkpt lat="43.65497" lon="-1.43232">
        <ele>2.06</ele>
        <time>2012-07-31T07:38:44Z</time>
      </trkpt>
      <trkpt lat="43.65429" lon="-1.43166">
        <ele>3.02</ele>
        <time>2012-07-31T07:39:04Z</time>
      </trkpt>
      <trkpt lat="43.65423" lon="-1.43049">
        <ele>3.5</ele>
        <time>2012-07-31T07:39:32Z</time>
      </trkpt>
      <trkpt lat="43.65348" lon="-1.43036">
        <ele>3.98</ele>
        <time>2012-07-31T07:39:56Z</time>
      </trkpt>
      <trkpt lat="43.65306" lon="-1.43064">
        <ele>3.98</ele>
        <time>2012-07-31T07:40:27Z</time>
      </trkpt>
      <trkpt lat="43.65217" lon="-1.43068">
        <ele>4.94</ele>
        <time>2012-07-31T07:40:51Z</time>
      </trkpt>
      <trkpt lat="43.65126" lon="-1.43101">
        <ele>4.46</ele>
        <time>2012-07-31T07:41:10Z</time>
      </trkpt>
      <trkpt lat="43.65057" lon="-1.43175">
        <ele>4.94</ele>
        <time>2012-07-31T07:41:31Z</time>
      </trkpt>
      <trkpt lat="43.65016" lon="-1.43288">
        <ele>4.94</ele>
        <time>2012-07-31T07:42:16Z</time>
      </trkpt>
      <trkpt lat="43.64983" lon="-1.43406">
        <ele>5.42</ele>
        <time>2012-07-31T07:42:42Z</time>
      </trkpt>
      <trkpt lat="43.64933" lon="-1.43511">
        <ele>4.94</ele>
        <time>2012-07-31T07:43:09Z</time>
      </trkpt>
      <trkpt lat="43.64894" lon="-1.43574">
        <ele>4.46</ele>
        <time>2012-07-31T07:43:35Z</time>
      </trkpt>
      <trkpt lat="43.64986" lon="-1.436">
        <ele>4.46</ele>
        <time>2012-07-31T07:44:04Z</time>
      </trkpt>
      <trkpt lat="43.65076" lon="-1.43632">
        <ele>4.46</ele>
        <time>2012-07-31T07:44:28Z</time>
      </trkpt>
      <trkpt lat="43.65168" lon="-1.43664">
        <ele>4.46</ele>
        <time>2012-07-31T07:44:50Z</time>
      </trkpt>
      <trkpt lat="43.65246" lon="-1.43725">
        <ele>4.94</ele>
        <time>2012-07-31T07:45:10Z</time>
      </trkpt>
      <trkpt lat="43.65293" lon="-1.43831">
        <ele>4.94</ele>
        <time>2012-07-31T07:45:30Z</time>
      </trkpt>
      <trkpt lat="43.65335" lon="-1.43943">
        <ele>5.42</ele>
        <time>2012-07-31T07:45:51Z</time>
      </trkpt>
      <trkpt lat="43.65365" lon="-1.44015">
        <ele>3.98</ele>
        <time>2012-07-31T07:46:14Z</time>
      </trkpt>
      <trkpt lat="43.65406" lon="-1.44099">
        <ele>5.91</ele>
        <time>2012-07-31T07:49:36Z</time>
      </trkpt>
      <trkpt lat="43.6544" lon="-1.44227">
        <ele>5.91</ele>
        <time>2012-07-31T07:50:06Z</time>
      </trkpt>
      <trkpt lat="43.65463" lon="-1.44348">
        <ele>5.91</ele>
        <time>2012-07-31T07:50:30Z</time>
      </trkpt>
      <trkpt lat="43.6549" lon="-1.44468">
        <ele>8.79</ele>
        <time>2012-07-31T07:50:58Z</time>
      </trkpt>
      <trkpt lat="43.6546" lon="-1.44483">
        <ele>8.31</ele>
        <time>2012-07-31T07:52:15Z</time>
      </trkpt>
      <trkpt lat="43.65372" lon="-1.44503">
        <ele>10.23</ele>
        <time>2012-07-31T07:52:51Z</time>
      </trkpt>
      <trkpt lat="43.65321" lon="-1.44526">
        <ele>10.71</ele>
        <time>2012-07-31T07:53:36Z</time>
      </trkpt>
      <trkpt lat="43.65355" lon="-1.44528">
        <ele>9.75</ele>
        <time>2012-07-31T07:54:31Z</time>
      </trkpt>
      <trkpt lat="43.6535" lon="-1.44525">
        <ele>12.15</ele>
        <time>2012-07-31T08:12:22Z</time>
      </trkpt>
      <trkpt lat="43.65428" lon="-1.44484">
        <ele>10.71</ele>
        <time>2012-07-31T08:13:11Z</time>
      </trkpt>
      <trkpt lat="43.65474" lon="-1.44408">
        <ele>9.27</ele>
        <time>2012-07-31T08:13:51Z</time>
      </trkpt>
      <trkpt lat="43.65449" lon="-1.44289">
        <ele>8.31</ele>
        <time>2012-07-31T08:14:21Z</time>
      </trkpt>
      <trkpt lat="43.65419" lon="-1.44171">
        <ele>7.83</ele>
        <time>2012-07-31T08:14:52Z</time>
      </trkpt>
      <trkpt lat="43.65376" lon="-1.44059">
        <ele>8.31</ele>
        <time>2012-07-31T08:15:28Z</time>
      </trkpt>
      <trkpt lat="43.65334" lon="-1.43948">
        <ele>8.31</ele>
        <time>2012-07-31T08:15:56Z</time>
      </trkpt>
      <trkpt lat="43.65292" lon="-1.43835">
        <ele>7.83</ele>
        <time>2012-07-31T08:16:22Z</time>
      </trkpt>
      <trkpt lat="43.65246" lon="-1.43728">
        <ele>7.35</ele>
        <time>2012-07-31T08:16:47Z</time>
      </trkpt>
      <trkpt lat="43.65169" lon="-1.43665">
        <ele>7.83</ele>
        <time>2012-07-31T08:17:12Z</time>
      </trkpt>
      <trkpt lat="43.65081" lon="-1.43633">
        <ele>8.31</ele>
        <time>2012-07-31T08:17:35Z</time>
      </trkpt>
      <trkpt lat="43.64993" lon="-1.43604">
        <ele>7.83</ele>
        <time>2012-07-31T08:17:56Z</time>
      </trkpt>
      <trkpt lat="43.64902" lon="-1.43575">
        <ele>7.83</ele>
        <time>2012-07-31T08:18:16Z</time>
      </trkpt>
      <trkpt lat="43.64925" lon="-1.43513">
        <ele>7.83</ele>
        <time>2012-07-31T08:18:38Z</time>
      </trkpt>
      <trkpt lat="43.64985" lon="-1.43423">
        <ele>8.31</ele>
        <time>2012-07-31T08:18:59Z</time>
      </trkpt>
      <trkpt lat="43.65072" lon="-1.43457">
        <ele>8.31</ele>
        <time>2012-07-31T08:19:19Z</time>
      </trkpt>
      <trkpt lat="43.65159" lon="-1.43483">
        <ele>7.83</ele>
        <time>2012-07-31T08:19:40Z</time>
      </trkpt>
      <trkpt lat="43.65231" lon="-1.43435">
        <ele>7.83</ele>
        <time>2012-07-31T08:20:04Z</time>
      </trkpt>
      <trkpt lat="43.65233" lon="-1.43326">
        <ele>7.83</ele>
        <time>2012-07-31T08:20:32Z</time>
      </trkpt>
      <trkpt lat="43.65269" lon="-1.43209">
        <ele>6.87</ele>
        <time>2012-07-31T08:20:57Z</time>
      </trkpt>
      <trkpt lat="43.653" lon="-1.43088">
        <ele>7.83</ele>
        <time>2012-07-31T08:21:21Z</time>
      </trkpt>
      <trkpt lat="43.65372" lon="-1.43021">
        <ele>7.83</ele>
        <time>2012-07-31T08:21:57Z</time>
      </trkpt>
      <trkpt lat="43.65426" lon="-1.43081">
        <ele>7.35</ele>
        <time>2012-07-31T08:22:17Z</time>
      </trkpt>
      <trkpt lat="43.65403" lon="-1.43203">
        <ele>7.35</ele>
        <time>2012-07-31T08:22:35Z</time>
      </trkpt>
      <trkpt lat="43.65363" lon="-1.43313">
        <ele>6.87</ele>
        <time>2012-07-31T08:22:53Z</time>
      </trkpt>
      <trkpt lat="43.65334" lon="-1.43417">
        <ele>7.35</ele>
        <time>2012-07-31T08:23:12Z</time>
      </trkpt>
      <trkpt lat="43.6538" lon="-1.43513">
        <ele>7.83</ele>
        <time>2012-07-31T08:23:36Z</time>
      </trkpt>
      <trkpt lat="43.65427" lon="-1.43614">
        <ele>8.31</ele>
        <time>2012-07-31T08:23:56Z</time>
      </trkpt>
      <trkpt lat="43.65462" lon="-1.43718">
        <ele>7.83</ele>
        <time>2012-07-31T08:24:14Z</time>
      </trkpt>
      <trkpt lat="43.65488" lon="-1.43827">
        <ele>7.35</ele>
        <time>2012-07-31T08:24:32Z</time>
      </trkpt>
      <trkpt lat="43.65473" lon="-1.43908">
        <ele>7.35</ele>
        <time>2012-07-31T08:24:52Z</time>
      </trkpt>
      <trkpt lat="43.65523" lon="-1.43823">
        <ele>9.27</ele>
        <time>2012-07-31T08:25:36Z</time>
      </trkpt>
      <trkpt lat="43.65563" lon="-1.43928">
        <ele>11.67</ele>
        <time>2012-07-31T08:26:56Z</time>
      </trkpt>
      <trkpt lat="43.65607" lon="-1.44035">
        <ele>9.75</ele>
        <time>2012-07-31T08:27:20Z</time>
      </trkpt>
      <trkpt lat="43.65654" lon="-1.44149">
        <ele>9.27</ele>
        <time>2012-07-31T08:27:39Z</time>
      </trkpt>
      <trkpt lat="43.65699" lon="-1.44263">
        <ele>10.71</ele>
        <time>2012-07-31T08:27:57Z</time>
      </trkpt>
      <trkpt lat="43.65744" lon="-1.44366">
        <ele>14.08</ele>
        <time>2012-07-31T08:28:17Z</time>
      </trkpt>
      <trkpt lat="43.65833" lon="-1.44339">
        <ele>15.04</ele>
        <time>2012-07-31T08:28:37Z</time>
      </trkpt>
      <trkpt lat="43.65921" lon="-1.44307">
        <ele>14.56</ele>
        <time>2012-07-31T08:28:57Z</time>
      </trkpt>
      <trkpt lat="43.66006" lon="-1.44286">
        <ele>13.6</ele>
        <time>2012-07-31T08:29:16Z</time>
      </trkpt>
      <trkpt lat="43.66092" lon="-1.44247">
        <ele>12.63</ele>
        <time>2012-07-31T08:29:33Z</time>
      </trkpt>
      <trkpt lat="43.66178" lon="-1.44215">
        <ele>12.63</ele>
        <time>2012-07-31T08:29:51Z</time>
      </trkpt>
      <trkpt lat="43.66262" lon="-1.44168">
        <ele>14.08</ele>
        <time>2012-07-31T08:30:11Z</time>
      </trkpt>
      <trkpt lat="43.6635" lon="-1.44139">
        <ele>14.56</ele>
        <time>2012-07-31T08:30:30Z</time>
      </trkpt>
      <trkpt lat="43.66438" lon="-1.44108">
        <ele>14.56</ele>
        <time>2012-07-31T08:30:47Z</time>
      </trkpt>
      <trkpt lat="43.66528" lon="-1.441">
        <ele>14.08</ele>
        <time>2012-07-31T08:31:03Z</time>
      </trkpt>
      <trkpt lat="43.66621" lon="-1.44094">
        <ele>16</ele>
        <time>2012-07-31T08:31:22Z</time>
      </trkpt>
      <trkpt lat="43.66694" lon="-1.44037">
        <ele>13.6</ele>
        <time>2012-07-31T08:31:43Z</time>
      </trkpt>
      <trkpt lat="43.66742" lon="-1.43967">
        <ele>7.35</ele>
        <time>2012-07-31T08:32:01Z</time>
      </trkpt>
      <trkpt lat="43.66833" lon="-1.43957">
        <ele>6.39</ele>
        <time>2012-07-31T08:32:19Z</time>
      </trkpt>
      <trkpt lat="43.66927" lon="-1.43946">
        <ele>6.87</ele>
        <time>2012-07-31T08:32:38Z</time>
      </trkpt>
      <trkpt lat="43.67019" lon="-1.43931">
        <ele>8.31</ele>
        <time>2012-07-31T08:32:56Z</time>
      </trkpt>
      <trkpt lat="43.67097" lon="-1.43942">
        <ele>6.87</ele>
        <time>2012-07-31T08:33:17Z</time>
      </trkpt>
      <trkpt lat="43.6719" lon="-1.43921">
        <ele>6.39</ele>
        <time>2012-07-31T08:33:36Z</time>
      </trkpt>
      <trkpt lat="43.67283" lon="-1.43907">
        <ele>5.42</ele>
        <time>2012-07-31T08:33:54Z</time>
      </trkpt>
      <trkpt lat="43.67373" lon="-1.43894">
        <ele>4.94</ele>
        <time>2012-07-31T08:34:11Z</time>
      </trkpt>
      <trkpt lat="43.67457" lon="-1.43836">
        <ele>5.91</ele>
        <time>2012-07-31T08:34:28Z</time>
      </trkpt>
      <trkpt lat="43.67527" lon="-1.43763">
        <ele>7.35</ele>
        <time>2012-07-31T08:34:46Z</time>
      </trkpt>
      <trkpt lat="43.67621" lon="-1.43762">
        <ele>7.35</ele>
        <time>2012-07-31T08:35:06Z</time>
      </trkpt>
      <trkpt lat="43.67712" lon="-1.43794">
        <ele>6.87</ele>
        <time>2012-07-31T08:35:25Z</time>
      </trkpt>
      <trkpt lat="43.67803" lon="-1.43826">
        <ele>6.39</ele>
        <time>2012-07-31T08:35:42Z</time>
      </trkpt>
      <trkpt lat="43.67894" lon="-1.43852">
        <ele>7.35</ele>
        <time>2012-07-31T08:35:58Z</time>
      </trkpt>
      <trkpt lat="43.67983" lon="-1.43842">
        <ele>9.27</ele>
        <time>2012-07-31T08:36:16Z</time>
      </trkpt>
      <trkpt lat="43.68071" lon="-1.43798">
        <ele>5.91</ele>
        <time>2012-07-31T08:36:32Z</time>
      </trkpt>
      <trkpt lat="43.68146" lon="-1.43727">
        <ele>3.98</ele>
        <time>2012-07-31T08:36:45Z</time>
      </trkpt>
      <trkpt lat="43.68216" lon="-1.43674">
        <ele>6.39</ele>
        <time>2012-07-31T08:37:05Z</time>
      </trkpt>
      <trkpt lat="43.68306" lon="-1.43649">
        <ele>4.94</ele>
        <time>2012-07-31T08:37:23Z</time>
      </trkpt>
      <trkpt lat="43.68394" lon="-1.4367">
        <ele>5.91</ele>
        <time>2012-07-31T08:37:40Z</time>
      </trkpt>
      <trkpt lat="43.68486" lon="-1.4369">
        <ele>6.39</ele>
        <time>2012-07-31T08:37:56Z</time>
      </trkpt>
      <trkpt lat="43.68576" lon="-1.437">
        <ele>6.39</ele>
        <time>2012-07-31T08:38:12Z</time>
      </trkpt>
      <trkpt lat="43.68665" lon="-1.43674">
        <ele>6.87</ele>
        <time>2012-07-31T08:38:28Z</time>
      </trkpt>
      <trkpt lat="43.68755" lon="-1.43686">
        <ele>7.83</ele>
        <time>2012-07-31T08:38:45Z</time>
      </trkpt>
      <trkpt lat="43.68848" lon="-1.43675">
        <ele>7.83</ele>
        <time>2012-07-31T08:39:04Z</time>
      </trkpt>
      <trkpt lat="43.68941" lon="-1.43653">
        <ele>8.79</ele>
        <time>2012-07-31T08:39:21Z</time>
      </trkpt>
      <trkpt lat="43.69031" lon="-1.4363">
        <ele>8.31</ele>
        <time>2012-07-31T08:39:38Z</time>
      </trkpt>
      <trkpt lat="43.69121" lon="-1.43617">
        <ele>9.27</ele>
        <time>2012-07-31T08:39:58Z</time>
      </trkpt>
      <trkpt lat="43.69206" lon="-1.43596">
        <ele>9.75</ele>
        <time>2012-07-31T08:40:16Z</time>
      </trkpt>
      <trkpt lat="43.69301" lon="-1.43601">
        <ele>11.67</ele>
        <time>2012-07-31T08:40:33Z</time>
      </trkpt>
      <trkpt lat="43.69392" lon="-1.43588">
        <ele>5.91</ele>
        <time>2012-07-31T08:40:46Z</time>
      </trkpt>
      <trkpt lat="43.69478" lon="-1.43626">
        <ele>11.67</ele>
        <time>2012-07-31T08:41:01Z</time>
      </trkpt>
      <trkpt lat="43.69567" lon="-1.436">
        <ele>15.04</ele>
        <time>2012-07-31T08:41:22Z</time>
      </trkpt>
      <trkpt lat="43.69582" lon="-1.4349">
        <ele>11.67</ele>
        <time>2012-07-31T08:41:45Z</time>
      </trkpt>
      <trkpt lat="43.69637" lon="-1.43392">
        <ele>9.27</ele>
        <time>2012-07-31T08:42:02Z</time>
      </trkpt>
      <trkpt lat="43.69731" lon="-1.43377">
        <ele>8.31</ele>
        <time>2012-07-31T08:42:18Z</time>
      </trkpt>
      <trkpt lat="43.69804" lon="-1.4334">
        <ele>6.87</ele>
        <time>2012-07-31T08:42:36Z</time>
      </trkpt>
      <trkpt lat="43.69885" lon="-1.43365">
        <ele>5.91</ele>
        <time>2012-07-31T08:42:54Z</time>
      </trkpt>
      <trkpt lat="43.69968" lon="-1.43337">
        <ele>10.71</ele>
        <time>2012-07-31T08:43:12Z</time>
      </trkpt>
      <trkpt lat="43.70053" lon="-1.43352">
        <ele>11.19</ele>
        <time>2012-07-31T08:43:30Z</time>
      </trkpt>
      <trkpt lat="43.70144" lon="-1.4335">
        <ele>9.27</ele>
        <time>2012-07-31T08:43:45Z</time>
      </trkpt>
      <trkpt lat="43.70241" lon="-1.43345">
        <ele>5.42</ele>
        <time>2012-07-31T08:43:58Z</time>
      </trkpt>
      <trkpt lat="43.70326" lon="-1.43324">
        <ele>9.75</ele>
        <time>2012-07-31T08:44:15Z</time>
      </trkpt>
      <trkpt lat="43.70417" lon="-1.43276">
        <ele>11.67</ele>
        <time>2012-07-31T08:44:32Z</time>
      </trkpt>
      <trkpt lat="43.70497" lon="-1.43215">
        <ele>7.83</ele>
        <time>2012-07-31T08:44:45Z</time>
      </trkpt>
      <trkpt lat="43.70566" lon="-1.43155">
        <ele>8.31</ele>
        <time>2012-07-31T08:45:00Z</time>
      </trkpt>
      <trkpt lat="43.70643" lon="-1.43084">
        <ele>6.39</ele>
        <time>2012-07-31T08:45:16Z</time>
      </trkpt>
      <trkpt lat="43.70714" lon="-1.43009">
        <ele>8.31</ele>
        <time>2012-07-31T08:45:36Z</time>
      </trkpt>
      <trkpt lat="43.70737" lon="-1.42882">
        <ele>7.35</ele>
        <time>2012-07-31T08:46:02Z</time>
      </trkpt>
      <trkpt lat="43.70766" lon="-1.42757">
        <ele>8.79</ele>
        <time>2012-07-31T08:46:24Z</time>
      </trkpt>
      <trkpt lat="43.70805" lon="-1.42638">
        <ele>11.19</ele>
        <time>2012-07-31T08:46:45Z</time>
      </trkpt>
      <trkpt lat="43.70837" lon="-1.42517">
        <ele>11.19</ele>
        <time>2012-07-31T08:47:03Z</time>
      </trkpt>
      <trkpt lat="43.70848" lon="-1.42388">
        <ele>9.27</ele>
        <time>2012-07-31T08:47:20Z</time>
      </trkpt>
      <trkpt lat="43.70809" lon="-1.42272">
        <ele>9.27</ele>
        <time>2012-07-31T08:47:37Z</time>
      </trkpt>
      <trkpt lat="43.70745" lon="-1.42176">
        <ele>13.6</ele>
        <time>2012-07-31T08:47:56Z</time>
      </trkpt>
      <trkpt lat="43.70685" lon="-1.42077">
        <ele>12.63</ele>
        <time>2012-07-31T08:48:15Z</time>
      </trkpt>
      <trkpt lat="43.70606" lon="-1.42035">
        <ele>9.75</ele>
        <time>2012-07-31T08:48:32Z</time>
      </trkpt>
      <trkpt lat="43.70593" lon="-1.41911">
        <ele>9.27</ele>
        <time>2012-07-31T08:48:49Z</time>
      </trkpt>
      <trkpt lat="43.7061" lon="-1.41797">
        <ele>8.79</ele>
        <time>2012-07-31T08:49:16Z</time>
      </trkpt>
      <trkpt lat="43.70693" lon="-1.41756">
        <ele>10.71</ele>
        <time>2012-07-31T08:49:38Z</time>
      </trkpt>
      <trkpt lat="43.7078" lon="-1.41702">
        <ele>12.63</ele>
        <time>2012-07-31T08:49:56Z</time>
      </trkpt>
      <trkpt lat="43.70863" lon="-1.41748">
        <ele>13.6</ele>
        <time>2012-07-31T08:50:12Z</time>
      </trkpt>
      <trkpt lat="43.70922" lon="-1.41851">
        <ele>13.12</ele>
        <time>2012-07-31T08:50:28Z</time>
      </trkpt>
      <trkpt lat="43.71005" lon="-1.41907">
        <ele>10.23</ele>
        <time>2012-07-31T08:50:41Z</time>
      </trkpt>
      <trkpt lat="43.71101" lon="-1.41897">
        <ele>9.27</ele>
        <time>2012-07-31T08:50:54Z</time>
      </trkpt>
      <trkpt lat="43.71195" lon="-1.41879">
        <ele>11.19</ele>
        <time>2012-07-31T08:51:08Z</time>
      </trkpt>
      <trkpt lat="43.71276" lon="-1.41937">
        <ele>12.63</ele>
        <time>2012-07-31T08:51:28Z</time>
      </trkpt>
      <trkpt lat="43.71349" lon="-1.42017">
        <ele>7.83</ele>
        <time>2012-07-31T08:51:42Z</time>
      </trkpt>
      <trkpt lat="43.71432" lon="-1.42087">
        <ele>9.75</ele>
        <time>2012-07-31T08:51:57Z</time>
      </trkpt>
      <trkpt lat="43.71524" lon="-1.4211">
        <ele>9.75</ele>
        <time>2012-07-31T08:52:12Z</time>
      </trkpt>
      <trkpt lat="43.71613" lon="-1.42071">
        <ele>10.71</ele>
        <time>2012-07-31T08:52:28Z</time>
      </trkpt>
      <trkpt lat="43.71675" lon="-1.41978">
        <ele>12.63</ele>
        <time>2012-07-31T08:52:46Z</time>
      </trkpt>
      <trkpt lat="43.71737" lon="-1.41881">
        <ele>16.48</ele>
        <time>2012-07-31T08:53:09Z</time>
      </trkpt>
      <trkpt lat="43.71807" lon="-1.4179">
        <ele>14.08</ele>
        <time>2012-07-31T08:53:26Z</time>
      </trkpt>
      <trkpt lat="43.71883" lon="-1.41706">
        <ele>9.75</ele>
        <time>2012-07-31T08:53:39Z</time>
      </trkpt>
      <trkpt lat="43.71967" lon="-1.41637">
        <ele>7.35</ele>
        <time>2012-07-31T08:53:51Z</time>
      </trkpt>
      <trkpt lat="43.7205" lon="-1.41582">
        <ele>7.83</ele>
        <time>2012-07-31T08:54:04Z</time>
      </trkpt>
      <trkpt lat="43.72131" lon="-1.41528">
        <ele>9.27</ele>
        <time>2012-07-31T08:54:18Z</time>
      </trkpt>
      <trkpt lat="43.72219" lon="-1.41473">
        <ele>9.27</ele>
        <time>2012-07-31T08:54:35Z</time>
      </trkpt>
      <trkpt lat="43.72306" lon="-1.41423">
        <ele>7.83</ele>
        <time>2012-07-31T08:54:50Z</time>
      </trkpt>
      <trkpt lat="43.72392" lon="-1.41366">
        <ele>8.31</ele>
        <time>2012-07-31T08:55:06Z</time>
      </trkpt>
      <trkpt lat="43.72476" lon="-1.41312">
        <ele>8.79</ele>
        <time>2012-07-31T08:55:22Z</time>
      </trkpt>
      <trkpt lat="43.72564" lon="-1.41254">
        <ele>9.27</ele>
        <time>2012-07-31T08:55:40Z</time>
      </trkpt>
      <trkpt lat="43.72651" lon="-1.41194">
        <ele>10.71</ele>
        <time>2012-07-31T08:55:57Z</time>
      </trkpt>
      <trkpt lat="43.72746" lon="-1.41158">
        <ele>10.71</ele>
        <time>2012-07-31T08:56:15Z</time>
      </trkpt>
      <trkpt lat="43.72839" lon="-1.41159">
        <ele>7.83</ele>
        <time>2012-07-31T08:56:27Z</time>
      </trkpt>
      <trkpt lat="43.72929" lon="-1.41196">
        <ele>8.79</ele>
        <time>2012-07-31T08:56:41Z</time>
      </trkpt>
      <trkpt lat="43.7301" lon="-1.41253">
        <ele>8.31</ele>
        <time>2012-07-31T08:56:55Z</time>
      </trkpt>
      <trkpt lat="43.73091" lon="-1.41304">
        <ele>8.31</ele>
        <time>2012-07-31T08:57:10Z</time>
      </trkpt>
      <trkpt lat="43.73178" lon="-1.41268">
        <ele>9.75</ele>
        <time>2012-07-31T08:57:26Z</time>
      </trkpt>
      <trkpt lat="43.73269" lon="-1.41222">
        <ele>10.23</ele>
        <time>2012-07-31T08:57:43Z</time>
      </trkpt>
      <trkpt lat="43.73362" lon="-1.41178">
        <ele>7.83</ele>
        <time>2012-07-31T08:57:58Z</time>
      </trkpt>
      <trkpt lat="43.73454" lon="-1.41142">
        <ele>8.31</ele>
        <time>2012-07-31T08:58:13Z</time>
      </trkpt>
      <trkpt lat="43.73546" lon="-1.41182">
        <ele>8.31</ele>
        <time>2012-07-31T08:58:29Z</time>
      </trkpt>
      <trkpt lat="43.73633" lon="-1.41229">
        <ele>7.35</ele>
        <time>2012-07-31T08:58:44Z</time>
      </trkpt>
      <trkpt lat="43.73719" lon="-1.41172">
        <ele>8.31</ele>
        <time>2012-07-31T08:59:00Z</time>
      </trkpt>
      <trkpt lat="43.73801" lon="-1.41105">
        <ele>7.35</ele>
        <time>2012-07-31T08:59:16Z</time>
      </trkpt>
      <trkpt lat="43.73888" lon="-1.41036">
        <ele>7.83</ele>
        <time>2012-07-31T08:59:33Z</time>
      </trkpt>
      <trkpt lat="43.73971" lon="-1.4097">
        <ele>7.83</ele>
        <time>2012-07-31T08:59:50Z</time>
      </trkpt>
      <trkpt lat="43.74056" lon="-1.409">
        <ele>7.83</ele>
        <time>2012-07-31T09:00:07Z</time>
      </trkpt>
      <trkpt lat="43.74136" lon="-1.40833">
        <ele>8.79</ele>
        <time>2012-07-31T09:00:23Z</time>
      </trkpt>
      <trkpt lat="43.74217" lon="-1.40764">
        <ele>8.31</ele>
        <time>2012-07-31T09:00:39Z</time>
      </trkpt>
      <trkpt lat="43.74304" lon="-1.40698">
        <ele>7.35</ele>
        <time>2012-07-31T09:00:55Z</time>
      </trkpt>
      <trkpt lat="43.74387" lon="-1.40632">
        <ele>8.31</ele>
        <time>2012-07-31T09:01:10Z</time>
      </trkpt>
      <trkpt lat="43.74466" lon="-1.40569">
        <ele>8.31</ele>
        <time>2012-07-31T09:01:25Z</time>
      </trkpt>
      <trkpt lat="43.74547" lon="-1.40502">
        <ele>7.83</ele>
        <time>2012-07-31T09:01:40Z</time>
      </trkpt>
      <trkpt lat="43.7463" lon="-1.40436">
        <ele>8.79</ele>
        <time>2012-07-31T09:01:55Z</time>
      </trkpt>
      <trkpt lat="43.7471" lon="-1.4037">
        <ele>8.31</ele>
        <time>2012-07-31T09:02:10Z</time>
      </trkpt>
      <trkpt lat="43.74792" lon="-1.40302">
        <ele>8.31</ele>
        <time>2012-07-31T09:02:26Z</time>
      </trkpt>
      <trkpt lat="43.7488" lon="-1.40236">
        <ele>8.79</ele>
        <time>2012-07-31T09:02:42Z</time>
      </trkpt>
      <trkpt lat="43.74964" lon="-1.40166">
        <ele>9.75</ele>
        <time>2012-07-31T09:02:58Z</time>
      </trkpt>
      <trkpt lat="43.75043" lon="-1.40104">
        <ele>9.27</ele>
        <time>2012-07-31T09:03:13Z</time>
      </trkpt>
      <trkpt lat="43.75119" lon="-1.40039">
        <ele>9.27</ele>
        <time>2012-07-31T09:03:29Z</time>
      </trkpt>
      <trkpt lat="43.75204" lon="-1.39971">
        <ele>8.79</ele>
        <time>2012-07-31T09:03:45Z</time>
      </trkpt>
      <trkpt lat="43.75288" lon="-1.39904">
        <ele>8.79</ele>
        <time>2012-07-31T09:04:00Z</time>
      </trkpt>
      <trkpt lat="43.75368" lon="-1.39835">
        <ele>8.79</ele>
        <time>2012-07-31T09:04:16Z</time>
      </trkpt>
      <trkpt lat="43.75455" lon="-1.39771">
        <ele>8.79</ele>
        <time>2012-07-31T09:04:32Z</time>
      </trkpt>
      <trkpt lat="43.75538" lon="-1.39704">
        <ele>8.79</ele>
        <time>2012-07-31T09:04:48Z</time>
      </trkpt>
      <trkpt lat="43.7562" lon="-1.39638">
        <ele>9.27</ele>
        <time>2012-07-31T09:05:04Z</time>
      </trkpt>
      <trkpt lat="43.75703" lon="-1.39572">
        <ele>9.27</ele>
        <time>2012-07-31T09:05:21Z</time>
      </trkpt>
      <trkpt lat="43.75781" lon="-1.39506">
        <ele>8.79</ele>
        <time>2012-07-31T09:05:37Z</time>
      </trkpt>
      <trkpt lat="43.75858" lon="-1.39439">
        <ele>8.79</ele>
        <time>2012-07-31T09:05:53Z</time>
      </trkpt>
      <trkpt lat="43.75941" lon="-1.39367">
        <ele>8.79</ele>
        <time>2012-07-31T09:06:10Z</time>
      </trkpt>
      <trkpt lat="43.76026" lon="-1.393">
        <ele>8.31</ele>
        <time>2012-07-31T09:06:25Z</time>
      </trkpt>
      <trkpt lat="43.76105" lon="-1.39236">
        <ele>8.79</ele>
        <time>2012-07-31T09:06:40Z</time>
      </trkpt>
      <trkpt lat="43.76197" lon="-1.39166">
        <ele>9.27</ele>
        <time>2012-07-31T09:06:58Z</time>
      </trkpt>
      <trkpt lat="43.76285" lon="-1.39131">
        <ele>10.23</ele>
        <time>2012-07-31T09:07:17Z</time>
      </trkpt>
      <trkpt lat="43.76373" lon="-1.39174">
        <ele>9.75</ele>
        <time>2012-07-31T09:07:36Z</time>
      </trkpt>
      <trkpt lat="43.76459" lon="-1.39216">
        <ele>8.79</ele>
        <time>2012-07-31T09:07:53Z</time>
      </trkpt>
      <trkpt lat="43.76545" lon="-1.39262">
        <ele>7.83</ele>
        <time>2012-07-31T09:08:09Z</time>
      </trkpt>
      <trkpt lat="43.76637" lon="-1.39304">
        <ele>7.83</ele>
        <time>2012-07-31T09:08:24Z</time>
      </trkpt>
      <trkpt lat="43.76725" lon="-1.39346">
        <ele>7.83</ele>
        <time>2012-07-31T09:08:39Z</time>
      </trkpt>
      <trkpt lat="43.76817" lon="-1.39363">
        <ele>8.31</ele>
        <time>2012-07-31T09:08:54Z</time>
      </trkpt>
      <trkpt lat="43.7691" lon="-1.3934">
        <ele>8.31</ele>
        <time>2012-07-31T09:09:11Z</time>
      </trkpt>
      <trkpt lat="43.77" lon="-1.39294">
        <ele>7.83</ele>
        <time>2012-07-31T09:09:27Z</time>
      </trkpt>
      <trkpt lat="43.77087" lon="-1.3932">
        <ele>7.83</ele>
        <time>2012-07-31T09:09:43Z</time>
      </trkpt>
      <trkpt lat="43.77177" lon="-1.39367">
        <ele>7.83</ele>
        <time>2012-07-31T09:09:59Z</time>
      </trkpt>
      <trkpt lat="43.7726" lon="-1.39419">
        <ele>7.83</ele>
        <time>2012-07-31T09:10:13Z</time>
      </trkpt>
      <trkpt lat="43.77347" lon="-1.39464">
        <ele>6.87</ele>
        <time>2012-07-31T09:10:27Z</time>
      </trkpt>
      <trkpt lat="43.77413" lon="-1.39455">
        <ele>7.83</ele>
        <time>2012-07-31T09:10:48Z</time>
      </trkpt>
      <trkpt lat="43.77458" lon="-1.39362">
        <ele>8.31</ele>
        <time>2012-07-31T09:11:10Z</time>
      </trkpt>
      <trkpt lat="43.77545" lon="-1.39407">
        <ele>7.83</ele>
        <time>2012-07-31T09:11:27Z</time>
      </trkpt>
      <trkpt lat="43.77634" lon="-1.39457">
        <ele>8.31</ele>
        <time>2012-07-31T09:11:43Z</time>
      </trkpt>
      <trkpt lat="43.7772" lon="-1.39505">
        <ele>8.79</ele>
        <time>2012-07-31T09:11:58Z</time>
      </trkpt>
      <trkpt lat="43.77805" lon="-1.39552">
        <ele>8.79</ele>
        <time>2012-07-31T09:12:13Z</time>
      </trkpt>
      <trkpt lat="43.77897" lon="-1.39598">
        <ele>8.31</ele>
        <time>2012-07-31T09:12:29Z</time>
      </trkpt>
      <trkpt lat="43.77992" lon="-1.39626">
        <ele>7.83</ele>
        <time>2012-07-31T09:12:46Z</time>
      </trkpt>
      <trkpt lat="43.78089" lon="-1.39629">
        <ele>6.87</ele>
        <time>2012-07-31T09:13:03Z</time>
      </trkpt>
      <trkpt lat="43.78182" lon="-1.3963">
        <ele>6.39</ele>
        <time>2012-07-31T09:13:18Z</time>
      </trkpt>
      <trkpt lat="43.78265" lon="-1.39612">
        <ele>7.35</ele>
        <time>2012-07-31T09:13:37Z</time>
      </trkpt>
      <trkpt lat="43.78274" lon="-1.39488">
        <ele>6.87</ele>
        <time>2012-07-31T09:14:02Z</time>
      </trkpt>
      <trkpt lat="43.78293" lon="-1.39363">
        <ele>7.35</ele>
        <time>2012-07-31T09:14:25Z</time>
      </trkpt>
      <trkpt lat="43.78297" lon="-1.39237">
        <ele>7.35</ele>
        <time>2012-07-31T09:14:50Z</time>
      </trkpt>
    </trkseg>
  </trk>
</gpx>